createdAt,value
2023-03-21T00:00:34.211Z,34.45
2023-03-21T00:03:01.788Z,34.63
2023-03-21T00:05:30.746Z,35.88
2023-03-21T00:07:59.557Z,34.20
2023-03-21T00:10:39.840Z,33.00
2023-03-21T00:13:14.536Z,36.50
2023-03-21T00:16:06.740Z,34.50
2023-03-21T00:18:42.074Z,32.53
2023-03-21T00:21:38.380Z,32.92
2023-03-21T00:23:59.521Z,35.55
2023-03-21T00:26:27.562Z,31.08
2023-03-21T00:28:57.716Z,32.65
2023-03-21T00:31:26.543Z,30.23
2023-03-21T00:33:54.145Z,32.15
2023-03-21T00:36:21.725Z,31.52
2023-03-21T00:38:49.292Z,32.95
2023-03-21T00:41:26.239Z,30.70
2023-03-21T00:44:04.135Z,30.98
2023-03-21T00:46:43.982Z,31.55
2023-03-21T00:49:14.659Z,31.52
2023-03-21T00:51:43.750Z,33.38
2023-03-21T00:54:12.495Z,32.90
2023-03-21T00:56:42.801Z,31.23
2023-03-21T00:59:10.421Z,30.33
2023-03-21T01:01:39.265Z,32.40
2023-03-21T01:04:11.057Z,28.73
2023-03-21T01:06:44.359Z,30.98
2023-03-21T01:09:15.074Z,33.27
2023-03-21T01:11:42.885Z,37.40
2023-03-21T01:14:21.922Z,36.65
2023-03-21T01:16:52.391Z,39.30
2023-03-21T01:19:40.737Z,32.53
2023-03-21T01:22:08.725Z,34.55
2023-03-21T01:24:40.594Z,35.63
2023-03-21T01:27:14.260Z,36.22
2023-03-21T01:29:41.726Z,39.58
2023-03-21T01:32:10.972Z,36.53
2023-03-21T01:34:38.564Z,36.70
2023-03-21T01:37:06.320Z,36.42
2023-03-21T01:39:34.934Z,39.67
2023-03-21T01:42:02.725Z,43.03
2023-03-21T01:44:30.808Z,36.83
2023-03-21T01:47:10.385Z,39.00
2023-03-21T01:49:46.918Z,37.15
2023-03-21T01:52:29.727Z,37.90
2023-03-21T01:55:04.654Z,37.42
2023-03-21T01:57:43.570Z,36.10
2023-03-21T02:00:15.361Z,37.50
2023-03-21T02:02:58.248Z,39.28
2023-03-21T02:05:33.680Z,35.33
2023-03-21T02:08:01.385Z,33.38
2023-03-21T02:10:29.292Z,28.40
2023-03-21T02:12:57.618Z,30.77
2023-03-21T02:15:26.569Z,27.00
2023-03-21T02:17:55.652Z,27.40
2023-03-21T02:20:37.963Z,26.83
2023-03-21T02:23:25.729Z,27.00
2023-03-21T02:26:01.824Z,27.35
2023-03-21T02:28:32.002Z,29.90
2023-03-21T02:31:15.798Z,28.85
2023-03-21T02:33:52.143Z,30.75
2023-03-21T02:36:28.760Z,30.60
2023-03-21T02:39:04.343Z,32.65
2023-03-21T02:41:40.229Z,30.30
2023-03-21T02:44:09.930Z,34.35
2023-03-21T02:46:47.057Z,35.83
2023-03-21T02:49:18.121Z,34.70
2023-03-21T02:51:47.404Z,34.95
2023-03-21T02:54:38.226Z,36.47
2023-03-21T02:57:07.089Z,34.15
2023-03-21T02:59:44.349Z,37.40
2023-03-21T03:02:16.603Z,34.42
2023-03-21T03:04:44.130Z,35.00
2023-03-21T03:07:20.622Z,36.72
2023-03-21T03:09:57.324Z,37.08
2023-03-21T03:12:29.035Z,34.78
2023-03-21T03:15:04.453Z,34.70
2023-03-21T03:17:39.751Z,37.55
2023-03-21T03:20:17.155Z,36.15
2023-03-21T03:22:49.251Z,36.55
2023-03-21T03:25:29.815Z,36.42
2023-03-21T03:28:08.636Z,36.20
2023-03-21T03:30:43.385Z,36.80
2023-03-21T03:33:17.281Z,38.30
2023-03-21T03:35:48.259Z,37.67
2023-03-21T03:38:21.741Z,42.20
2023-03-21T03:40:53.505Z,43.70
2023-03-21T03:43:24.371Z,42.92
2023-03-21T03:45:56.102Z,42.33
2023-03-21T03:48:25.639Z,37.47
2023-03-21T03:50:55.239Z,37.22
2023-03-21T03:53:24.442Z,39.40
2023-03-21T03:55:54.953Z,40.15
2023-03-21T03:58:24.773Z,39.88
2023-03-21T04:03:24.563Z,36.03
2023-03-21T04:05:52.156Z,39.00
2023-03-21T04:08:19.865Z,39.20
2023-03-21T04:10:47.415Z,38.65
2023-03-21T04:13:16.407Z,36.28
2023-03-21T04:15:45.138Z,39.90
2023-03-21T04:18:12.743Z,38.72
2023-03-21T04:20:40.586Z,39.10
2023-03-21T04:23:10.394Z,38.67
2023-03-21T04:25:47.530Z,38.65
2023-03-21T04:28:22.326Z,40.22
2023-03-21T04:31:01.195Z,38.30
2023-03-21T04:33:38.403Z,37.22
2023-03-21T04:36:06.748Z,35.83
2023-03-21T04:38:34.239Z,38.13
2023-03-21T04:41:02.176Z,38.38
2023-03-21T04:43:32.030Z,41.15
2023-03-21T04:45:59.685Z,37.58
2023-03-21T04:48:28.003Z,38.92
2023-03-21T04:50:55.649Z,37.22
2023-03-21T04:53:23.171Z,36.05
2023-03-21T04:55:54.901Z,35.90
2023-03-21T04:58:22.847Z,35.75
2023-03-21T05:00:53.133Z,34.97
2023-03-21T05:03:21.477Z,33.75
2023-03-21T05:05:49.066Z,35.45
2023-03-21T05:08:17.398Z,33.85
2023-03-21T05:10:44.917Z,35.05
2023-03-21T05:13:12.407Z,35.00
2023-03-21T05:15:40.272Z,35.53
2023-03-21T05:18:11.961Z,33.10
2023-03-21T05:20:42.704Z,34.80
2023-03-21T05:23:11.025Z,35.55
2023-03-21T05:25:39.567Z,33.72
2023-03-21T05:28:07.884Z,31.08
2023-03-21T05:30:35.541Z,32.13
2023-03-21T05:33:03.079Z,32.45
2023-03-21T05:35:32.422Z,28.23
2023-03-21T05:37:59.999Z,29.95
2023-03-21T05:40:27.527Z,30.90
2023-03-21T05:42:55.100Z,28.23
2023-03-21T05:45:24.557Z,30.88
2023-03-21T05:47:52.144Z,26.85
2023-03-21T05:50:19.743Z,29.50
2023-03-21T05:52:48.529Z,28.17
2023-03-21T05:55:16.135Z,27.42
2023-03-21T05:57:43.681Z,26.63
2023-03-21T06:00:12.133Z,28.30
2023-03-21T06:02:39.981Z,26.23
2023-03-21T06:05:08.094Z,28.70
2023-03-21T06:07:37.041Z,28.88
2023-03-21T06:10:06.554Z,26.23
2023-03-21T06:12:34.621Z,26.20
2023-03-21T06:15:02.261Z,27.08
2023-03-21T06:17:30.381Z,26.45
2023-03-21T06:19:58.464Z,28.80
2023-03-21T06:22:26.129Z,26.63
2023-03-21T06:24:53.857Z,27.27
2023-03-21T06:27:22.879Z,28.85
2023-03-21T06:29:50.452Z,29.20
2023-03-21T06:32:17.982Z,29.95
2023-03-21T06:34:45.788Z,27.98
2023-03-21T06:37:13.339Z,29.83
2023-03-21T06:39:41.028Z,29.10
2023-03-21T06:42:08.643Z,28.65
2023-03-21T06:44:37.518Z,32.53
2023-03-21T06:47:05.081Z,28.45
2023-03-21T06:49:37.689Z,27.98
2023-03-21T06:52:05.362Z,27.80
2023-03-21T06:54:32.901Z,28.55
2023-03-21T06:57:00.630Z,27.25
2023-03-21T06:59:28.215Z,27.95
2023-03-21T07:01:57.202Z,28.73
2023-03-21T07:04:28.571Z,28.10
2023-03-21T07:06:56.106Z,30.15
2023-03-21T07:09:28.105Z,26.88
2023-03-21T07:11:55.811Z,26.13
2023-03-21T07:14:24.058Z,27.90
2023-03-21T07:16:51.663Z,26.95
2023-03-21T07:22:12.468Z,28.15
2023-03-21T07:24:40.254Z,27.27
2023-03-21T07:27:07.933Z,29.80
2023-03-21T07:29:35.629Z,26.67
2023-03-21T07:32:03.250Z,28.40
2023-03-21T07:34:33.870Z,27.33
2023-03-21T07:37:01.474Z,28.38
2023-03-21T07:39:29.584Z,27.35
2023-03-21T07:41:57.272Z,28.35
2023-03-21T07:44:24.921Z,27.98
2023-03-21T07:46:52.470Z,28.05
2023-03-21T07:49:22.128Z,28.33
2023-03-21T07:51:51.027Z,26.13
2023-03-21T07:54:22.109Z,27.00
2023-03-21T07:56:50.761Z,25.90
2023-03-21T07:59:18.398Z,25.23
2023-03-21T08:01:47.771Z,24.38
2023-03-21T08:04:15.382Z,24.80
2023-03-21T08:06:45.428Z,24.42
2023-03-21T08:09:14.523Z,26.08
2023-03-21T08:11:42.042Z,27.63
2023-03-21T08:14:09.805Z,25.35
2023-03-21T08:16:37.491Z,25.55
2023-03-21T08:19:05.028Z,25.17
2023-03-21T08:21:32.710Z,25.30
2023-03-21T08:24:00.473Z,26.02
2023-03-21T08:26:29.447Z,27.40
2023-03-21T08:31:49.583Z,25.20
2023-03-21T08:34:17.976Z,25.17
2023-03-21T08:36:45.494Z,27.15
2023-03-21T08:39:17.687Z,25.17
2023-03-21T08:41:49.198Z,25.17
2023-03-21T08:47:08.727Z,25.05
2023-03-21T08:49:36.340Z,23.83
2023-03-21T08:52:06.920Z,25.15
2023-03-21T08:54:34.582Z,25.10
2023-03-21T08:57:03.764Z,24.42
2023-03-21T08:59:32.567Z,24.92
2023-03-21T09:02:00.316Z,24.10
2023-03-21T09:04:28.037Z,24.63
2023-03-21T09:06:56.247Z,23.73
2023-03-21T09:09:26.455Z,23.38
2023-03-21T09:11:54.070Z,22.00
2023-03-21T09:14:28.440Z,22.05
2023-03-21T09:16:56.373Z,21.75
2023-03-21T09:19:24.276Z,20.83
2023-03-21T09:21:53.283Z,20.40
2023-03-21T09:24:22.676Z,19.98
2023-03-21T09:26:51.050Z,18.70
2023-03-21T09:29:19.533Z,19.10
2023-03-21T09:31:48.817Z,18.15
2023-03-21T09:34:16.456Z,18.60
2023-03-21T09:36:44.348Z,20.15
2023-03-21T09:39:13.251Z,20.38
2023-03-21T09:42:01.504Z,19.95
2023-03-21T09:47:35.357Z,19.83
2023-03-21T09:50:14.080Z,20.00
2023-03-21T09:52:48.186Z,20.40
2023-03-21T09:55:19.948Z,19.03
2023-03-21T09:57:49.035Z,22.10
2023-03-21T10:00:25.700Z,19.60
2023-03-21T10:03:01.732Z,17.67
2023-03-21T10:05:34.237Z,18.23
2023-03-21T10:08:04.929Z,19.05
2023-03-21T10:10:38.240Z,17.77
2023-03-21T10:13:11.712Z,20.10
2023-03-21T10:15:39.431Z,17.85
2023-03-21T10:18:08.616Z,17.90
2023-03-21T10:20:37.370Z,18.10
2023-03-21T10:23:06.709Z,16.00
2023-03-21T10:25:38.992Z,17.77
2023-03-21T10:28:07.441Z,16.17
2023-03-21T10:30:40.823Z,14.73
2023-03-21T10:33:15.388Z,15.30
2023-03-21T10:35:45.100Z,17.63
2023-03-21T10:38:16.492Z,16.92
2023-03-21T10:40:44.063Z,16.95
2023-03-21T10:43:34.931Z,15.02
2023-03-21T10:46:07.449Z,16.48
2023-03-21T10:48:41.940Z,15.85
2023-03-21T10:51:10.853Z,15.65
2023-03-21T10:53:41.086Z,16.38
2023-03-21T10:56:09.976Z,16.55
2023-03-21T11:08:30.587Z,16.10
2023-03-21T12:40:33.983Z,15.32
2023-03-21T12:43:08.421Z,15.27
2023-03-21T12:48:51.377Z,16.67
2023-03-21T12:54:09.920Z,16.00
2023-03-21T12:56:43.070Z,16.27
2023-03-21T12:59:19.281Z,15.00
2023-03-21T13:01:52.585Z,18.85
2023-03-21T13:04:34.634Z,15.60
2023-03-21T13:10:24.319Z,15.70
2023-03-21T13:12:58.977Z,14.55
2023-03-21T13:15:34.476Z,16.55
2023-03-21T13:18:05.337Z,16.42
2023-03-21T13:20:36.952Z,15.95
2023-03-21T13:23:06.640Z,17.33
2023-03-21T13:25:34.286Z,16.15
2023-03-21T13:28:04.650Z,16.90
2023-03-21T13:30:33.451Z,15.93
2023-03-21T13:33:06.485Z,16.77
2023-03-21T13:35:35.611Z,16.35
2023-03-21T13:38:04.806Z,16.58
2023-03-21T13:40:38.538Z,18.33
2023-03-21T13:43:27.680Z,16.95
2023-03-21T13:45:56.798Z,16.38
2023-03-21T13:48:29.137Z,15.65
2023-03-21T13:51:01.139Z,16.92
2023-03-21T13:53:32.156Z,17.48
2023-03-21T13:56:01.440Z,16.92
2023-03-21T13:58:36.237Z,16.73
2023-03-21T14:01:21.028Z,16.60
2023-03-21T14:03:50.338Z,16.45
2023-03-21T14:06:18.740Z,15.90
2023-03-21T14:08:47.735Z,17.75
2023-03-21T14:11:18.359Z,16.48
2023-03-21T14:13:51.350Z,15.80
2023-03-21T14:16:22.088Z,17.73
2023-03-21T14:18:55.010Z,17.25
2023-03-21T14:21:25.151Z,17.98
2023-03-21T14:24:02.762Z,18.15
2023-03-21T14:26:31.736Z,16.33
2023-03-21T14:28:59.771Z,16.25
2023-03-21T14:31:28.793Z,17.40
2023-03-21T14:33:58.002Z,18.20
2023-03-21T14:36:26.899Z,16.83
2023-03-21T14:38:55.898Z,17.50
2023-03-21T14:41:24.809Z,16.17
2023-03-21T14:44:11.052Z,16.10
2023-03-21T14:46:40.038Z,15.40
2023-03-21T14:49:14.758Z,17.08
2023-03-21T14:51:42.989Z,15.93
2023-03-21T14:54:13.051Z,17.33
2023-03-21T14:56:40.914Z,16.42
2023-03-21T14:59:12.557Z,16.33
2023-03-21T15:01:41.894Z,17.25
2023-03-21T15:04:09.578Z,17.60
2023-03-21T15:06:49.379Z,17.65
2023-03-21T15:09:17.640Z,17.80
2023-03-21T15:11:50.764Z,19.63
2023-03-21T15:14:19.355Z,19.33
2023-03-21T15:16:48.288Z,19.52
2023-03-21T15:19:17.287Z,20.48
2023-03-21T15:21:46.017Z,20.05
2023-03-21T15:24:17.104Z,19.80
2023-03-21T15:26:46.489Z,20.02
2023-03-21T15:29:14.725Z,20.77
2023-03-21T15:31:42.362Z,20.05
2023-03-21T15:34:18.534Z,20.95
2023-03-21T15:36:47.786Z,22.75
2023-03-21T15:39:16.539Z,20.25
2023-03-21T15:41:56.982Z,21.10
2023-03-21T15:44:24.476Z,20.13
2023-03-21T15:46:52.997Z,20.50
2023-03-21T15:49:25.598Z,19.05
2023-03-21T15:51:54.851Z,16.73
2023-03-21T15:54:24.660Z,15.60
2023-03-21T15:56:54.986Z,14.65
2023-03-21T15:59:25.756Z,15.35
2023-03-21T16:01:53.639Z,15.50
2023-03-21T16:04:23.775Z,14.57
2023-03-21T16:06:52.405Z,13.65
2023-03-21T16:09:23.551Z,12.07
2023-03-21T16:11:51.806Z,12.07
2023-03-21T16:14:20.085Z,11.75
2023-03-21T16:16:49.049Z,13.82
2023-03-21T16:19:16.939Z,13.48
2023-03-21T16:21:47.004Z,16.38
2023-03-21T16:24:14.495Z,16.70
2023-03-21T16:26:44.219Z,18.92
2023-03-21T16:29:13.139Z,18.08
2023-03-21T16:31:40.722Z,11.93
2023-03-21T16:34:08.383Z,13.18
2023-03-21T16:36:37.627Z,14.05
2023-03-21T16:39:12.715Z,17.13
2023-03-21T16:41:40.396Z,17.98
2023-03-21T16:44:08.267Z,19.63
2023-03-21T16:46:35.794Z,18.98
2023-03-21T16:49:03.410Z,19.85
2023-03-21T16:51:32.498Z,22.25
2023-03-21T16:54:00.888Z,22.17
2023-03-21T16:56:31.005Z,22.40
2023-03-21T16:58:59.078Z,23.58
2023-03-21T17:01:27.477Z,24.17
2023-03-21T17:03:55.521Z,24.35
2023-03-21T17:06:24.368Z,25.95
2023-03-21T17:08:52.171Z,24.30
2023-03-21T17:11:21.282Z,27.63
2023-03-21T17:13:50.747Z,25.50
2023-03-21T17:16:19.256Z,27.52
2023-03-21T17:18:46.792Z,29.42
2023-03-21T17:21:15.448Z,27.67
2023-03-21T17:23:43.410Z,29.75
2023-03-21T17:26:11.221Z,27.08
2023-03-21T17:28:39.457Z,26.80
2023-03-21T17:31:12.936Z,29.88
2023-03-21T17:33:40.502Z,30.67
2023-03-21T17:36:11.880Z,28.27
2023-03-21T17:38:39.394Z,27.52
2023-03-21T17:41:07.317Z,28.45
2023-03-21T17:43:34.773Z,27.02
2023-03-21T17:46:03.609Z,34.15
2023-03-21T17:48:32.508Z,31.90
2023-03-21T17:51:01.108Z,28.65
2023-03-21T17:53:28.866Z,29.58
2023-03-21T17:55:56.475Z,31.55
2023-03-21T17:58:24.041Z,30.83
2023-03-21T18:00:51.650Z,29.75
2023-03-21T18:03:21.149Z,28.98
2023-03-21T18:05:50.026Z,28.52
2023-03-21T18:08:17.755Z,26.52
2023-03-21T18:10:45.335Z,28.85
2023-03-21T18:13:13.868Z,25.30
2023-03-21T18:15:44.795Z,25.67
2023-03-21T18:18:13.018Z,26.80
2023-03-21T18:20:52.044Z,25.05
2023-03-21T18:23:21.635Z,25.02
2023-03-21T18:25:49.410Z,25.38
2023-03-21T18:28:20.512Z,26.08
2023-03-21T18:31:07.726Z,25.23
2023-03-21T18:33:37.738Z,24.70
2023-03-21T18:36:07.760Z,25.17
2023-03-21T18:38:37.281Z,25.38
2023-03-21T18:41:04.995Z,22.08
2023-03-21T18:46:20.525Z,21.42
2023-03-21T18:48:49.243Z,22.55
2023-03-21T18:51:21.684Z,21.38
2023-03-21T18:53:50.814Z,21.10
2023-03-21T18:57:06.130Z,20.30
2023-03-21T18:59:06.279Z,19.48
2023-03-21T19:01:33.968Z,21.60
2023-03-21T19:04:23.846Z,22.27
2023-03-21T19:06:50.280Z,21.77
2023-03-21T19:09:19.822Z,20.25
2023-03-21T19:11:47.501Z,20.35
2023-03-21T19:14:16.385Z,20.77
2023-03-21T19:17:32.656Z,20.52
2023-03-21T19:19:34.054Z,19.10
2023-03-21T19:22:01.747Z,21.63
2023-03-21T19:24:31.301Z,19.13
2023-03-21T19:26:59.233Z,20.17
2023-03-21T19:29:26.942Z,23.38
2023-03-21T19:31:54.548Z,20.67
2023-03-21T19:34:22.128Z,21.23
2023-03-21T19:36:51.787Z,18.77
2023-03-21T19:39:22.583Z,21.00
2023-03-21T19:42:08.986Z,20.48
2023-03-21T19:45:05.099Z,21.83
2023-03-21T19:47:33.371Z,22.33
2023-03-21T19:50:47.281Z,21.50
2023-03-21T19:53:03.268Z,21.58
2023-03-21T19:55:30.901Z,21.58
2023-03-21T19:58:14.631Z,20.35
2023-03-21T20:00:42.777Z,22.33
2023-03-21T20:03:10.937Z,21.05
2023-03-21T20:05:40.886Z,21.08
2023-03-21T20:08:10.906Z,22.58
2023-03-21T20:10:39.156Z,20.25
2023-03-21T20:13:11.272Z,20.05
2023-03-21T20:15:46.020Z,19.48
2023-03-21T20:18:15.897Z,19.42
2023-03-21T20:20:43.381Z,18.85
2023-03-21T20:23:11.663Z,18.10
2023-03-21T20:25:42.316Z,16.05
2023-03-21T20:28:25.054Z,17.60
2023-03-21T20:33:34.562Z,16.77
2023-03-21T20:36:38.197Z,18.13
2023-03-21T20:38:54.171Z,15.88
2023-03-21T20:41:21.731Z,16.38
2023-03-21T20:46:38.160Z,17.25
2023-03-21T20:49:07.299Z,15.90
2023-03-21T20:54:23.622Z,16.20
2023-03-21T20:56:51.119Z,15.82
2023-03-21T20:59:26.523Z,17.25
2023-03-21T21:01:55.311Z,17.42
2023-03-21T21:04:25.588Z,18.08
2023-03-21T21:07:02.244Z,16.58
2023-03-21T21:09:31.020Z,18.20
2023-03-21T21:12:07.555Z,18.88
2023-03-21T21:14:37.648Z,24.95
2023-03-21T21:17:24.471Z,26.08
2023-03-21T21:19:55.503Z,21.65
2023-03-21T21:22:25.942Z,20.48
2023-03-21T21:24:53.470Z,20.33
2023-03-21T21:27:21.170Z,19.30
2023-03-21T21:29:52.655Z,19.80
2023-03-21T21:32:20.878Z,19.10
2023-03-21T21:34:49.049Z,19.70
2023-03-21T21:37:16.583Z,16.88
2023-03-21T21:39:44.149Z,18.27
2023-03-21T21:42:14.769Z,15.85
2023-03-21T21:44:44.894Z,17.63
2023-03-21T21:47:13.872Z,18.63
2023-03-21T21:49:42.299Z,19.05
2023-03-21T21:52:13.509Z,18.33
2023-03-21T21:54:45.545Z,18.55
2023-03-21T21:57:13.608Z,16.95
2023-03-21T21:59:41.883Z,16.27
2023-03-21T22:02:10.346Z,16.33
2023-03-21T22:04:39.704Z,16.08
2023-03-21T22:07:14.141Z,16.90
2023-03-21T22:09:41.712Z,14.95
2023-03-21T22:12:09.188Z,15.13
2023-03-21T22:14:36.763Z,15.77
2023-03-21T22:17:04.480Z,15.77
2023-03-21T22:19:32.412Z,14.77
2023-03-21T22:22:01.292Z,16.35
2023-03-21T22:24:28.858Z,14.30
2023-03-21T22:26:58.125Z,15.88
2023-03-21T22:29:26.368Z,15.38
2023-03-21T22:31:54.622Z,16.90
2023-03-21T22:34:22.761Z,15.07
2023-03-21T22:36:51.098Z,15.57
2023-03-21T22:39:20.340Z,16.52
2023-03-21T22:41:47.802Z,15.57
2023-03-21T22:44:15.513Z,17.20
2023-03-21T22:46:51.740Z,17.00
2023-03-21T22:49:21.186Z,17.75
2023-03-21T22:51:49.130Z,17.67
2023-03-21T22:54:16.652Z,17.67
2023-03-21T22:56:45.541Z,16.60
2023-03-21T22:59:16.833Z,18.92
2023-03-21T23:01:44.633Z,19.73
2023-03-21T23:04:12.216Z,18.52
2023-03-21T23:06:40.065Z,17.45
2023-03-21T23:09:10.342Z,17.75
2023-03-21T23:11:38.326Z,17.92
2023-03-21T23:14:08.873Z,18.65
2023-03-21T23:16:38.340Z,17.43
2023-03-21T23:19:06.260Z,18.25
2023-03-21T23:21:34.600Z,18.23
2023-03-21T23:24:02.347Z,17.25
2023-03-21T23:26:30.238Z,16.50
2023-03-21T23:28:58.068Z,15.20
2023-03-21T23:31:27.831Z,14.48
2023-03-21T23:33:56.032Z,16.20
2023-03-21T23:36:23.697Z,15.48
2023-03-21T23:38:51.573Z,13.80
2023-03-21T23:41:20.075Z,14.27
2023-03-21T23:43:48.330Z,14.65
2023-03-21T23:46:16.553Z,14.60
2023-03-21T23:48:46.034Z,13.60
2023-03-21T23:51:14.465Z,15.10
2023-03-21T23:53:42.096Z,15.90
2023-03-21T23:56:13.416Z,13.75
2023-03-21T23:58:41.043Z,15.55
